Time;durP1;ratioP1;P1;durP2;ratioP2;P2;SDS_P1;SDS_P2;PMS_P1;PMS_P2;Temp;Humidity;BMP_temperature;BMP_pressure;BME280_temperature;BME280_humidity;BME280_pressure;Samples;Min_cycle;Max_cycle;Signal;HPM_P1;HPM_P2
2023/04/15 00:00:15;;;;;;;;;14.25;13.50;;;;;11.62;76.82;99767.06;5076774;28;45699;-85
2023/04/15 00:02:40;;;;;;;;;17.75;15.25;;;;;11.59;76.94;99756.88;5077220;28;46258;-83
2023/04/15 00:05:06;;;;;;;;;16.25;15.25;;;;;11.57;77.44;99757.00;5077585;28;46194;-84
2023/04/15 00:07:32;;;;;;;;;13.50;12.75;;;;;11.55;77.18;99748.41;5080323;28;45506;-88
2023/04/15 00:09:57;;;;;;;;;16.75;16.75;;;;;11.55;77.04;99755.50;5080816;28;45491;-85
2023/04/15 00:12:24;;;;;;;;;12.00;12.00;;;;;11.57;77.14;99754.38;5079306;28;45502;-85
2023/04/15 00:14:50;;;;;;;;;15.75;15.00;;;;;11.56;76.98;99744.84;5077304;28;46007;-85
2023/04/15 00:17:15;;;;;;;;;14.25;13.25;;;;;11.53;77.19;99732.00;5073715;28;45872;-86
2023/04/15 00:23:04;;;;;;;;;13.25;11.50;;;;;11.52;77.38;99729.50;5072606;28;46061;-89
2023/04/15 00:25:29;;;;;;;;;17.50;15.25;;;;;11.51;77.12;99726.06;5074953;28;45918;-88
2023/04/15 00:27:55;;;;;;;;;14.25;12.50;;;;;11.53;77.22;99718.91;5075668;28;46115;-89
2023/04/15 00:30:20;;;;;;;;;12.75;10.75;;;;;11.54;77.37;99719.72;5077111;28;45784;-89
2023/04/15 00:32:45;;;;;;;;;14.50;14.00;;;;;11.54;77.37;99723.19;5079228;28;46624;-89
2023/04/15 00:38:33;;;;;;;;;17.25;13.25;;;;;11.55;77.40;99716.94;5075323;28;45654;-87
2023/04/15 00:40:59;;;;;;;;;15.50;13.75;;;;;11.57;77.26;99722.06;5075552;28;45923;-90
2023/04/15 00:43:25;;;;;;;;;15.75;13.00;;;;;11.53;77.31;99710.19;5078679;28;45629;-83
2023/04/15 00:45:52;;;;;;;;;14.50;13.50;;;;;11.55;77.45;99714.31;5082523;28;46087;-86
2023/04/15 00:48:17;;;;;;;;;16.25;13.50;;;;;11.54;77.47;99706.59;5083881;28;45600;-88
2023/04/15 00:50:43;;;;;;;;;15.00;13.00;;;;;11.49;77.35;99696.53;5079771;28;45725;-87
2023/04/15 00:53:08;;;;;;;;;13.50;12.50;;;;;11.53;77.32;99704.94;5059834;28;47256;-87
2023/04/15 00:55:35;;;;;;;;;16.50;13.75;;;;;11.54;77.24;99706.59;5098380;28;45929;-82
2023/04/15 00:58:00;;;;;;;;;14.25;13.25;;;;;11.54;77.14;99710.06;5099978;28;45698;-81
2023/04/15 01:00:26;;;;;;;;;13.75;13.25;;;;;11.56;77.37;99705.50;5095166;28;45957;-85
2023/04/15 01:02:51;;;;;;;;;14.00;13.00;;;;;11.59;77.42;99699.16;5085855;28;45793;-83
2023/04/15 01:08:39;;;;;;;;;17.00;12.00;;;;;11.60;77.41;99700.81;5077005;28;45746;-87
2023/04/15 01:11:05;;;;;;;;;17.50;14.50;;;;;11.58;77.42;99700.13;5077719;28;45794;-85
2023/04/15 01:13:33;;;;;;;;;16.75;14.75;;;;;11.57;77.35;99696.66;5057871;28;48285;-86
2023/04/15 01:15:58;;;;;;;;;12.00;12.00;;;;;11.62;77.37;99691.81;5077408;28;46049;-86
2023/04/15 01:18:24;;;;;;;;;14.00;13.50;;;;;11.63;77.36;99688.25;5077332;28;45792;-85
2023/04/15 01:20:49;;;;;;;;;12.25;11.75;;;;;11.66;77.34;99695.03;5077472;28;45818;-85
2023/04/15 01:23:16;;;;;;;;;13.75;12.75;;;;;11.64;77.61;99682.03;5076147;28;45809;-87
2023/04/15 01:25:43;;;;;;;;;12.00;12.00;;;;;11.66;77.79;99685.31;5076495;28;46171;-87
2023/04/15 01:28:09;;;;;;;;;15.75;13.00;;;;;11.66;77.87;99681.91;5076643;28;45908;-84
2023/04/15 01:30:35;;;;;;;;;11.50;9.50;;;;;11.63;78.07;99677.75;5076763;28;45760;-85
2023/04/15 01:33:00;;;;;;;;;12.50;11.75;;;;;11.61;77.99;99674.44;5076434;28;45659;-85
2023/04/15 01:38:48;;;;;;;;;10.50;10.50;;;;;11.62;77.93;99676.09;5076680;28;45608;-81
2023/04/15 01:41:13;;;;;;;;;12.00;10.75;;;;;11.63;77.97;99690.88;5077997;28;45730;-83
2023/04/15 01:43:39;;;;;;;;;12.00;11.50;;;;;11.60;77.89;99680.66;5077583;28;46253;-84
2023/04/15 01:46:05;;;;;;;;;11.50;10.50;;;;;11.62;77.68;99677.88;5077034;28;45742;-87
2023/04/15 01:48:31;;;;;;;;;12.75;10.50;;;;;11.62;78.04;99685.75;5058629;28;45761;-86
2023/04/15 01:54:18;;;;;;;;;12.25;10.25;;;;;11.61;78.36;99684.09;5076878;28;45649;-86
2023/04/15 01:56:43;;;;;;;;;10.75;9.25;;;;;11.63;78.15;99705.78;5076334;28;45703;-86
2023/04/15 01:59:08;;;;;;;;;9.50;8.00;;;;;11.57;77.97;99701.06;5075531;28;45569;-86
2023/04/15 02:01:34;;;;;;;;;9.00;8.25;;;;;11.45;78.64;99704.78;5076336;28;45540;-84
2023/04/15 02:03:59;;;;;;;;;10.50;10.50;;;;;11.33;78.83;99699.69;5057520;28;48818;-85
2023/04/15 02:06:27;;;;;;;;;12.75;8.50;;;;;11.29;79.20;99700.91;5076017;28;45637;-87
2023/04/15 02:08:52;;;;;;;;;6.00;4.00;;;;;11.27;78.99;99715.97;5076182;28;45459;-85
2023/04/15 02:11:18;;;;;;;;;4.50;4.00;;;;;11.18;78.83;99706.28;5076849;28;45522;-87
2023/04/15 02:13:44;;;;;;;;;8.00;7.50;;;;;11.13;79.08;99711.09;5076467;28;45579;-88
2023/04/15 02:16:18;;;;;;;;;9.00;8.00;;;;;11.06;79.33;99719.66;5076595;28;46427;-86
2023/04/15 02:18:45;;;;;;;;;7.25;7.25;;;;;10.98;79.57;99716.84;5076780;28;45511;-87
2023/04/15 02:24:34;;;;;;;;;3.75;3.75;;;;;10.76;80.29;99728.34;5078012;27;46038;-85
2023/04/15 02:27:00;;;;;;;;;3.25;3.00;;;;;10.72;80.46;99724.34;5082908;28;45982;-82
2023/04/15 02:29:26;;;;;;;;;5.00;4.50;;;;;10.65;81.23;99726.66;5084890;28;45567;-85
2023/04/15 02:31:51;;;;;;;;;6.25;6.25;;;;;10.66;81.35;99728.31;5081055;28;45928;-85
2023/04/15 02:34:17;;;;;;;;;7.50;7.00;;;;;10.59;81.70;99735.03;5076957;28;46387;-84
2023/04/15 02:36:43;;;;;;;;;6.25;4.00;;;;;10.52;81.85;99747.84;5076338;28;46315;-86
2023/04/15 02:39:08;;;;;;;;;6.50;5.50;;;;;10.44;82.10;99733.72;5077258;28;45716;-85
2023/04/15 02:41:34;;;;;;;;;7.50;7.50;;;;;10.39;82.79;99741.97;5078550;28;45657;-83
2023/04/15 02:43:59;;;;;;;;;7.25;6.75;;;;;10.34;82.62;99745.94;5076371;28;45563;-85
2023/04/15 02:46:26;;;;;;;;;9.25;7.00;;;;;10.33;83.09;99765.22;5057592;28;48125;-87
2023/04/15 02:48:52;;;;;;;;;12.00;11.00;;;;;10.28;83.64;99757.75;5076133;28;45918;-85
2023/04/15 02:54:40;;;;;;;;;11.50;10.50;;;;;10.21;84.24;99764.44;5075743;28;45678;-87
2023/04/15 02:57:05;;;;;;;;;11.75;11.00;;;;;10.21;84.47;99774.06;5076638;28;45720;-83
2023/04/15 02:59:31;;;;;;;;;10.25;10.25;;;;;10.19;84.54;99776.84;5076536;28;45632;-87
2023/04/15 03:01:59;;;;;;;;;9.00;8.00;;;;;10.18;84.73;99774.34;5058033;28;45739;-89
2023/04/15 03:04:25;;;;;;;;;14.25;11.75;;;;;10.15;84.77;99764.91;5077372;28;46332;-87
2023/04/15 03:10:12;;;;;;;;;18.50;11.50;;;;;10.15;84.34;99800.75;5078891;28;45565;-86
2023/04/15 03:12:38;;;;;;;;;11.75;11.00;;;;;10.11;84.44;99790.50;5085917;28;45485;-85
2023/04/15 03:15:04;;;;;;;;;12.00;11.00;;;;;10.10;84.80;99793.25;5082347;28;46282;-87
2023/04/15 03:17:30;;;;;;;;;13.25;11.75;;;;;10.10;84.96;99803.72;5079790;28;46507;-84
2023/04/15 03:19:56;;;;;;;;;10.00;10.00;;;;;10.11;84.83;99802.78;5076040;28;45775;-83
2023/04/15 03:22:22;;;;;;;;;9.75;9.00;;;;;10.08;84.97;99806.47;5080293;28;45690;-83
2023/04/15 03:24:48;;;;;;;;;9.00;6.75;;;;;10.03;84.44;99821.72;5080552;28;45611;-87
2023/04/15 03:27:13;;;;;;;;;3.50;3.00;;;;;9.99;84.51;99829.94;5080974;28;46275;-88
2023/04/15 03:29:38;;;;;;;;;7.25;7.00;;;;;9.98;85.39;99825.69;5080816;28;45719;-89
2023/04/15 03:32:04;;;;;;;;;6.00;5.75;;;;;9.94;84.90;99825.06;5082578;28;45560;-81
2023/04/15 03:34:30;;;;;;;;;6.00;6.00;;;;;9.94;84.71;99825.06;5088601;28;45684;-88
2023/04/15 03:40:17;;;;;;;;;6.50;5.25;;;;;9.91;84.48;99825.34;5089909;28;45613;-86
2023/04/15 03:42:43;;;;;;;;;4.00;4.00;;;;;9.89;84.78;99832.47;5086389;28;45490;-89
2023/04/15 03:45:08;;;;;;;;;3.00;3.00;;;;;9.85;84.84;99835.47;5085221;28;45592;-89
2023/04/15 03:47:34;;;;;;;;;7.75;6.25;;;;;9.84;84.80;99837.25;5081374;28;46296;-88
2023/04/15 03:49:59;;;;;;;;;5.25;4.75;;;;;9.78;84.70;99836.88;5080678;28;45698;-85
2023/04/15 03:52:25;;;;;;;;;5.00;5.00;;;;;9.68;84.90;99831.56;5079784;28;45513;-82
2023/04/15 03:54:51;;;;;;;;;3.25;3.25;;;;;9.66;85.24;99836.91;5077839;28;48708;-85
2023/04/15 03:57:16;;;;;;;;;5.50;3.00;;;;;9.62;85.15;99866.06;5077486;28;46273;-85
2023/04/15 03:59:41;;;;;;;;;5.00;4.75;;;;;9.56;85.31;99856.91;5080967;28;45608;-87
2023/04/15 04:02:07;;;;;;;;;3.00;2.00;;;;;9.52;85.50;99855.50;5080407;28;45836;-84
2023/04/15 04:04:32;;;;;;;;;2.75;2.75;;;;;9.50;85.26;99864.44;5081941;28;46968;-88
2023/04/15 04:10:19;;;;;;;;;3.00;2.00;;;;;9.38;85.42;99866.22;5075865;28;45711;-82
2023/04/15 04:12:45;;;;;;;;;2.50;1.25;;;;;9.33;85.56;99855.28;5075802;28;45770;-86
2023/04/15 04:15:10;;;;;;;;;1.25;1.00;;;;;9.31;85.77;99869.41;5075807;28;45635;-86
2023/04/15 04:17:35;;;;;;;;;2.00;2.00;;;;;9.28;85.50;99862.66;5056905;28;48091;-87
2023/04/15 04:20:01;;;;;;;;;1.50;1.00;;;;;9.24;85.66;99862.03;5075699;28;46024;-89
2023/04/15 04:25:48;;;;;;;;;2.00;2.00;;;;;9.23;85.93;99883.91;5077530;28;45809;-86
2023/04/15 04:28:13;;;;;;;;;2.25;2.25;;;;;9.23;85.95;99870.03;5064323;28;46802;-90
2023/04/15 04:30:39;;;;;;;;;1.00;1.00;;;;;9.26;85.94;99875.00;5084278;28;45601;-88
2023/04/15 04:33:06;;;;;;;;;3.00;3.00;;;;;9.26;85.99;99872.38;5081127;28;45763;-86
2023/04/15 04:35:33;;;;;;;;;4.00;4.00;;;;;9.27;85.88;99881.91;5080809;28;46766;-87
2023/04/15 04:37:59;;;;;;;;;5.00;2.00;;;;;9.34;85.98;99885.69;5083045;28;46358;-87
2023/04/15 04:40:25;;;;;;;;;2.75;2.50;;;;;9.35;85.97;99897.81;5085614;28;45494;-81
2023/04/15 04:42:51;;;;;;;;;1.00;1.00;;;;;9.32;85.70;99890.22;5064722;28;45669;-86
2023/04/15 04:45:16;;;;;;;;;5.00;3.00;;;;;9.32;86.16;99905.06;5080128;28;46399;-86
2023/04/15 04:47:42;;;;;;;;;1.50;1.50;;;;;9.31;85.94;99896.38;5079299;28;45571;-91
2023/04/15 04:50:08;;;;;;;;;2.00;2.00;;;;;9.33;85.89;99901.50;5078721;28;45650;-91
2023/04/15 04:55:55;;;;;;;;;1.00;1.00;;;;;9.30;85.48;99917.41;5078102;28;45678;-82
2023/04/15 04:58:20;;;;;;;;;0.00;0.00;;;;;9.26;85.81;99915.03;5077358;28;47669;-85
2023/04/15 05:00:46;;;;;;;;;0.00;0.00;;;;;9.27;85.94;99918.50;5081109;28;45664;-84
2023/04/15 05:03:11;;;;;;;;;0.00;0.00;;;;;9.25;85.89;99926.44;5081172;28;45737;-87
2023/04/15 05:05:39;;;;;;;;;0.00;0.00;;;;;9.28;85.88;99930.63;5079829;28;45666;-86
2023/04/15 05:11:27;;;;;;;;;1.00;0.00;;;;;9.30;85.62;99954.84;5077475;28;45726;-84
2023/04/15 05:13:52;;;;;;;;;0.00;0.00;;;;;9.31;85.91;99947.81;5077987;28;45720;-84
2023/04/15 05:16:18;;;;;;;;;1.00;0.50;;;;;9.32;86.14;99942.50;5076958;28;46969;-84
2023/04/15 05:18:44;;;;;;;;;0.00;0.00;;;;;9.36;85.64;99956.16;5076849;28;46139;-85
2023/04/15 05:21:09;;;;;;;;;0.25;0.00;;;;;9.35;85.78;99954.47;5076930;28;45625;-85
2023/04/15 05:23:35;;;;;;;;;0.75;0.75;;;;;9.36;85.78;99969.22;5058551;28;45595;-85
2023/04/15 05:26:00;;;;;;;;;1.00;1.00;;;;;9.35;85.75;99967.53;5076441;28;45704;-84
2023/04/15 05:28:26;;;;;;;;;0.75;0.75;;;;;9.39;85.80;99977.69;5076348;28;45748;-83
2023/04/15 05:30:51;;;;;;;;;0.00;0.00;;;;;9.42;85.52;100000.13;5076766;28;45644;-86
2023/04/15 05:33:16;;;;;;;;;1.00;1.00;;;;;9.41;85.41;100001.91;5076662;28;45854;-85
2023/04/15 05:35:42;;;;;;;;;1.00;1.00;;;;;9.42;85.36;100003.56;5076555;28;45719;-81
2023/04/15 05:41:29;;;;;;;;;1.75;1.00;;;;;9.46;85.33;100014.63;5075976;28;45652;-82
2023/04/15 05:43:55;;;;;;;;;0.50;0.50;;;;;9.45;85.68;100023.41;5076513;28;45671;-81
2023/04/15 05:46:21;;;;;;;;;0.25;0.25;;;;;9.48;85.68;100012.72;5076187;28;46199;-82
2023/04/15 05:48:46;;;;;;;;;0.00;0.00;;;;;9.51;85.46;100021.16;5076305;28;46046;-82
2023/04/15 05:51:12;;;;;;;;;1.00;1.00;;;;;9.49;85.69;100019.63;5076053;28;45585;-82
2023/04/15 05:53:37;;;;;;;;;0.00;0.00;;;;;9.55;85.89;100027.03;5076543;28;45750;-81
2023/04/15 05:56:03;;;;;;;;;0.50;0.00;;;;;9.56;85.60;100034.72;5076010;28;45529;-82
2023/04/15 05:58:28;;;;;;;;;1.00;0.25;;;;;9.55;85.67;100045.31;5076003;28;46583;-80
2023/04/15 06:00:54;;;;;;;;;1.50;1.00;;;;;9.57;85.78;100049.47;5074392;28;45693;-79
2023/04/15 06:03:20;;;;;;;;;1.00;0.50;;;;;9.57;85.56;100074.78;5076627;28;45680;-78
2023/04/15 06:05:45;;;;;;;;;0.00;0.00;;;;;9.54;85.77;100067.19;5076114;28;45831;-78
2023/04/15 06:11:33;;;;;;;;;0.25;0.00;;;;;9.53;85.51;100089.88;5075567;28;45588;-79
2023/04/15 06:13:58;;;;;;;;;0.00;0.00;;;;;9.53;85.18;100081.19;5076354;28;45496;-81
2023/04/15 06:16:24;;;;;;;;;0.00;0.00;;;;;9.50;85.84;100076.22;5075544;28;46864;-81
2023/04/15 06:18:50;;;;;;;;;0.00;0.00;;;;;9.51;85.41;100094.38;5075823;28;45907;-82
2023/04/15 06:21:15;;;;;;;;;1.00;1.00;;;;;9.51;85.71;100109.22;5057057;28;45700;-83
2023/04/15 06:27:02;;;;;;;;;0.00;0.00;;;;;9.54;84.95;100114.25;5074916;28;45621;-84
2023/04/15 06:29:28;;;;;;;;;0.00;0.00;;;;;9.52;85.33;100096.06;5077146;28;46303;-84
2023/04/15 06:31:55;;;;;;;;;0.50;0.50;;;;;9.56;85.52;100131.47;5076852;28;45520;-80
2023/04/15 06:34:20;;;;;;;;;0.00;0.00;;;;;9.57;85.09;100137.53;5077123;28;45649;-82
2023/04/15 06:36:45;;;;;;;;;0.00;0.00;;;;;9.60;85.31;100137.34;5075623;28;45620;-82
2023/04/15 06:39:11;;;;;;;;;0.00;0.00;;;;;9.63;84.87;100139.72;5077383;28;46189;-85
2023/04/15 06:41:36;;;;;;;;;0.75;0.00;;;;;9.64;84.86;100151.84;5079188;28;45418;-85
2023/04/15 06:44:02;;;;;;;;;1.00;1.00;;;;;9.68;85.12;100158.50;5081453;28;45788;-83
2023/04/15 06:46:27;;;;;;;;;0.00;0.00;;;;;9.70;85.18;100161.84;5079680;28;45789;-79
2023/04/15 06:48:52;;;;;;;;;0.00;0.00;;;;;9.76;85.04;100168.41;5075647;28;45584;-82
2023/04/15 06:51:18;;;;;;;;;0.75;0.25;;;;;9.75;84.93;100174.59;5073473;28;45721;-82
2023/04/15 06:57:06;;;;;;;;;0.00;0.00;;;;;9.78;84.64;100176.97;5074957;28;45546;-85
2023/04/15 06:59:31;;;;;;;;;1.75;0.50;;;;;9.80;84.60;100194.22;5075336;28;46271;-85
2023/04/15 07:01:57;;;;;;;;;0.00;0.00;;;;;9.81;84.75;100187.22;5076430;28;45644;-80
2023/04/15 07:04:23;;;;;;;;;0.00;0.00;;;;;9.84;84.69;100195.66;5075934;28;45572;-76
2023/04/15 07:06:48;;;;;;;;;1.00;0.50;;;;;9.86;84.91;100196.38;5075109;28;46662;-85
2023/04/15 07:12:35;;;;;;;;;0.00;0.00;;;;;9.87;84.54;100208.53;5074600;28;45493;-80
2023/04/15 07:15:01;;;;;;;;;1.00;0.00;;;;;9.87;84.67;100213.75;5075201;28;45554;-81
2023/04/15 07:17:26;;;;;;;;;1.75;0.00;;;;;9.90;84.94;100225.75;5074610;28;45589;-83
2023/04/15 07:19:52;;;;;;;;;1.00;1.00;;;;;9.86;84.90;100227.78;5075021;28;45958;-81
2023/04/15 07:22:17;;;;;;;;;1.00;1.00;;;;;9.87;84.69;100221.59;5074642;28;45588;-83
2023/04/15 07:24:42;;;;;;;;;0.50;0.50;;;;;9.83;85.32;100235.84;5074950;28;45557;-83
2023/04/15 07:27:08;;;;;;;;;0.50;0.50;;;;;9.86;85.30;100233.00;5074295;28;45624;-80
2023/04/15 07:29:33;;;;;;;;;1.00;1.00;;;;;9.85;85.24;100251.44;5073243;28;46236;-80
2023/04/15 07:31:58;;;;;;;;;1.00;1.00;;;;;9.84;85.26;100247.97;5074395;28;45680;-82
2023/04/15 07:34:24;;;;;;;;;1.50;1.00;;;;;9.84;85.03;100258.44;5073287;28;45987;-82
2023/04/15 07:36:50;;;;;;;;;2.00;1.50;;;;;9.83;84.95;100253.31;5074493;28;45632;-81
2023/04/15 07:42:38;;;;;;;;;2.00;1.00;;;;;9.82;85.11;100277.84;5074120;28;45701;-81
2023/04/15 07:45:04;;;;;;;;;1.00;1.00;;;;;9.82;85.36;100270.81;5074329;28;45824;-81
2023/04/15 07:47:30;;;;;;;;;2.25;1.00;;;;;9.84;85.48;100279.38;5074191;28;45683;-80
2023/04/15 07:49:55;;;;;;;;;1.50;1.00;;;;;9.81;85.31;100287.47;5074472;28;45654;-80
2023/04/15 07:52:21;;;;;;;;;1.00;0.75;;;;;9.84;85.54;100289.00;5072651;28;45938;-77
2023/04/15 07:58:08;;;;;;;;;1.50;1.00;;;;;9.91;85.60;100309.38;5073876;28;45717;-77
2023/04/15 08:00:33;;;;;;;;;2.00;2.00;;;;;9.94;85.30;100306.53;5074115;28;45802;-81
2023/04/15 08:02:59;;;;;;;;;1.00;1.00;;;;;9.98;85.41;100317.63;5073808;28;45523;-80
2023/04/15 08:05:24;;;;;;;;;1.00;1.00;;;;;9.98;84.85;100321.09;5074478;28;45624;-76
2023/04/15 08:07:50;;;;;;;;;1.00;1.00;;;;;9.98;85.10;100334.16;5074698;28;45524;-84
2023/04/15 08:10:16;;;;;;;;;1.25;1.00;;;;;9.94;84.90;100332.69;5074888;28;45780;-83
2023/04/15 08:12:41;;;;;;;;;1.25;1.25;;;;;9.90;84.86;100326.03;5074419;28;45762;-79
2023/04/15 08:15:08;;;;;;;;;1.50;1.00;;;;;9.94;84.96;100330.06;5074029;28;45599;-80
2023/04/15 08:17:34;;;;;;;;;2.00;1.00;;;;;9.93;85.16;100341.50;5055284;28;48136;-81
2023/04/15 08:19:59;;;;;;;;;0.25;0.25;;;;;9.93;85.00;100359.00;5074165;28;46183;-81
2023/04/15 08:22:24;;;;;;;;;2.00;2.00;;;;;9.98;84.74;100360.34;5073714;28;45639;-81
2023/04/15 08:28:11;;;;;;;;;2.00;1.50;;;;;9.95;84.99;100368.38;5071237;28;45641;-77
2023/04/15 08:30:37;;;;;;;;;1.00;1.00;;;;;9.99;84.58;100380.31;5072518;28;45708;-81
2023/04/15 08:33:02;;;;;;;;;0.00;0.00;;;;;9.99;84.68;100416.09;5073601;28;45545;-80
2023/04/15 08:35:28;;;;;;;;;0.25;0.25;;;;;10.01;83.96;100396.75;5073914;28;45490;-78
2023/04/15 08:37:53;;;;;;;;;0.50;0.50;;;;;9.98;84.25;100404.81;5073661;28;45608;-79
2023/04/15 08:43:52;;;;;;;;;1.00;1.00;;;;;10.07;84.27;100398.06;5073433;28;45592;-78
2023/04/15 08:46:18;;;;;;;;;0.25;0.25;;;;;10.14;84.20;100406.34;5073757;28;45584;-78
2023/04/15 08:48:46;;;;;;;;;0.25;0.25;;;;;10.17;83.96;100437.53;5073538;28;45616;-78
2023/04/15 08:51:14;;;;;;;;;0.00;0.00;;;;;10.23;83.64;100413.53;5073193;28;46074;-79
2023/04/15 08:53:42;;;;;;;;;2.00;1.00;;;;;10.29;83.34;100424.41;5071872;28;45736;-79
2023/04/15 08:56:09;;;;;;;;;1.00;1.00;;;;;10.37;83.36;100437.75;5073501;28;45545;-81
2023/04/15 08:58:35;;;;;;;;;1.00;1.00;;;;;10.41;83.41;100430.53;5073278;28;46279;-79
2023/04/15 09:01:02;;;;;;;;;1.00;1.00;;;;;10.47;82.93;100430.09;5073299;28;46081;-81
2023/04/15 09:03:27;;;;;;;;;1.00;0.00;;;;;10.55;83.11;100443.44;5073465;28;45686;-80
2023/04/15 09:05:53;;;;;;;;;0.25;0.25;;;;;10.60;82.35;100443.09;5073436;28;45543;-80
2023/04/15 09:08:19;;;;;;;;;1.00;1.00;;;;;10.62;81.94;100452.53;5075696;28;45559;-80
2023/04/15 09:14:06;;;;;;;;;1.00;1.00;;;;;10.67;81.58;100468.75;5080112;28;45502;-81
2023/04/15 09:17:10;;;;;;;;;0.50;0.50;;;;;10.68;81.68;100480.91;5079621;28;45683;-76
2023/04/15 09:19:36;;;;;;;;;0.75;0.75;;;;;10.68;81.16;100473.03;5059176;28;48375;-78
2023/04/15 09:22:02;;;;;;;;;1.00;1.00;;;;;10.66;81.04;100481.94;5080303;28;45534;-88
2023/04/15 09:24:38;;;;;;;;;0.50;0.50;;;;;10.62;81.13;100499.69;5080870;28;45552;-88
2023/04/15 09:27:05;;;;;;;;;1.00;1.00;;;;;10.57;81.07;100503.59;5078021;28;45816;-84
2023/04/15 09:29:31;;;;;;;;;1.00;1.00;;;;;10.54;81.51;100507.25;5076742;28;45636;-81
2023/04/15 09:32:18;;;;;;;;;1.25;1.25;;;;;10.51;81.48;100503.09;5076408;28;46116;-84
2023/04/15 09:34:44;;;;;;;;;0.00;0.00;;;;;10.54;81.54;100504.63;5076481;28;45825;-83
2023/04/15 09:37:12;;;;;;;;;2.00;2.00;;;;;10.56;81.36;100521.09;5076876;28;45728;-82
2023/04/15 09:39:52;;;;;;;;;2.00;1.50;;;;;10.58;81.19;100521.78;5076350;28;45769;-85
2023/04/15 09:42:25;;;;;;;;;1.75;1.75;;;;;10.60;81.04;100527.78;5076320;28;45884;-82
2023/04/15 09:44:54;;;;;;;;;1.00;1.00;;;;;10.64;80.59;100529.22;5077593;28;45701;-80
2023/04/15 09:47:30;;;;;;;;;0.00;0.00;;;;;10.65;79.98;100567.56;5075964;27;45996;-79
2023/04/15 09:49:56;;;;;;;;;1.25;1.00;;;;;10.65;80.17;100544.00;5076296;28;45615;-82
2023/04/15 09:52:22;;;;;;;;;1.00;1.00;;;;;10.70;80.23;100551.50;5075834;28;46130;-80
2023/04/15 09:54:47;;;;;;;;;2.00;1.75;;;;;10.73;80.16;100557.38;5075723;28;45589;-79
2023/04/15 09:57:12;;;;;;;;;1.00;1.00;;;;;10.81;80.35;100562.06;5076563;28;45596;-79
2023/04/15 09:59:38;;;;;;;;;2.00;1.00;;;;;10.87;80.08;100559.81;5074757;28;47164;-80
2023/04/15 10:02:06;;;;;;;;;1.25;1.00;;;;;10.94;80.11;100573.31;5076032;28;45833;-79
2023/04/15 10:04:38;;;;;;;;;2.00;2.00;;;;;11.05;79.72;100577.78;5075984;28;45628;-80
2023/04/15 10:07:05;;;;;;;;;2.00;1.00;;;;;11.09;79.62;100574.81;5076111;28;45740;-80
2023/04/15 10:09:32;;;;;;;;;1.00;1.00;;;;;11.21;79.52;100588.81;5075705;28;47273;-80
2023/04/15 10:11:58;;;;;;;;;2.00;1.00;;;;;11.24;78.85;100589.41;5057203;28;46448;-76
2023/04/15 10:14:25;;;;;;;;;1.00;1.00;;;;;11.25;78.41;100598.97;5078172;28;45516;-78
2023/04/15 10:16:55;;;;;;;;;2.00;1.75;;;;;11.30;78.58;100603.84;5076070;28;45518;-79
2023/04/15 10:19:26;;;;;;;;;1.00;1.00;;;;;11.36;78.10;100598.16;5074616;28;45649;-79
2023/04/15 10:21:52;;;;;;;;;1.00;1.00;;;;;11.40;78.26;100604.00;5075302;28;46549;-77
2023/04/15 10:24:18;;;;;;;;;1.00;1.00;;;;;11.46;77.56;100608.78;5075825;28;45639;-77
2023/04/15 10:30:07;;;;;;;;;2.00;2.00;;;;;11.57;77.73;100629.81;5070036;28;45774;-76
2023/04/15 10:32:34;;;;;;;;;2.25;1.75;;;;;11.59;77.79;100612.19;5072170;28;46152;-76
2023/04/15 10:35:00;;;;;;;;;1.00;1.00;;;;;11.65;76.70;100633.56;5073705;28;45627;-78
2023/04/15 10:37:35;;;;;;;;;2.25;2.00;;;;;11.68;76.98;100614.94;5075120;28;45577;-78
2023/04/15 10:40:01;;;;;;;;;2.00;2.00;;;;;11.72;76.48;100626.88;5072283;28;46650;-77
2023/04/15 10:42:34;;;;;;;;;1.00;1.00;;;;;11.72;76.58;100626.88;5072551;28;46326;-79
2023/04/15 10:44:59;;;;;;;;;1.25;1.25;;;;;11.74;75.95;100627.66;5072372;28;45875;-78
2023/04/15 10:47:25;;;;;;;;;2.00;2.00;;;;;11.74;75.57;100632.06;5073175;28;45718;-76
2023/04/15 10:49:55;;;;;;;;;2.00;2.00;;;;;11.75;75.69;100649.47;5071859;28;46466;-78
2023/04/15 10:52:24;;;;;;;;;1.25;1.25;;;;;11.81;75.58;100635.06;5071462;28;47521;-76
2023/04/15 11:01:52;;;;;;;;;2.00;2.00;;;;;11.99;75.08;100650.22;5074183;28;46146;-75
2023/04/15 11:04:56;;;;;;;;;1.00;1.00;;;;;12.01;74.47;100673.75;5072004;28;45912;-78
2023/04/15 11:07:43;;;;;;;;;2.00;2.00;;;;;12.02;73.89;100673.66;5074364;28;45734;-83
2023/04/15 11:13:32;;;;;;;;;1.00;1.00;;;;;12.09;74.40;100677.47;5073932;28;45672;-76
2023/04/15 11:16:00;;;;;;;;;1.75;1.00;;;;;12.12;73.83;100682.50;5071785;28;46015;-81
2023/04/15 11:18:27;;;;;;;;;1.00;1.00;;;;;12.14;73.66;100666.63;5070339;28;45451;-81
2023/04/15 11:20:58;;;;;;;;;2.50;2.00;;;;;12.24;73.65;100703.53;5071753;28;45842;-81
2023/04/15 11:23:35;;;;;;;;;1.00;1.00;;;;;12.25;72.31;100703.41;5071525;28;45677;-82
2023/04/15 11:29:29;;;;;;;;;1.75;1.75;;;;;12.23;72.46;100704.47;5066693;27;45601;-81
2023/04/15 11:32:04;;;;;;;;;2.75;2.00;;;;;12.21;72.67;100707.22;5052661;28;45597;-82
2023/04/15 11:34:31;;;;;;;;;1.25;1.25;;;;;12.21;73.00;100707.22;5051329;28;45791;-81
2023/04/15 11:36:57;;;;;;;;;3.00;2.75;;;;;12.22;72.10;100715.94;5050920;28;46241;-81
2023/04/15 11:39:22;;;;;;;;;6.75;6.00;;;;;12.17;72.76;100711.88;5051556;28;45661;-81
2023/04/15 11:45:12;;;;;;;;;3.00;3.00;;;;;12.28;71.96;100723.34;5052762;28;46313;-79
2023/04/15 11:47:41;;;;;;;;;4.00;3.00;;;;;12.31;72.34;100750.22;5054231;28;46056;-81
2023/04/15 11:50:15;;;;;;;;;3.25;3.25;;;;;12.37;71.68;100738.41;5054555;28;45963;-84
2023/04/15 11:52:41;;;;;;;;;8.00;6.00;;;;;12.35;72.33;100740.31;5054575;28;45692;-83
2023/04/15 11:55:07;;;;;;;;;5.50;4.25;;;;;12.40;72.09;100748.69;5036088;28;48521;-84
2023/04/15 12:00:58;;;;;;;;;4.00;4.00;;;;;12.47;71.47;100784.06;5053257;28;45720;-83
2023/04/15 12:03:42;;;;;;;;;3.25;3.00;;;;;12.39;71.47;100765.41;5053440;28;45771;-82
2023/04/15 12:06:12;;;;;;;;;4.00;4.00;;;;;12.34;71.04;100765.75;5053782;28;45750;-82
2023/04/15 12:09:00;;;;;;;;;4.75;3.50;;;;;12.35;71.63;100761.34;5054095;28;46454;-81
2023/04/15 12:11:25;;;;;;;;;3.25;3.00;;;;;12.34;71.09;100770.16;5036717;28;45626;-84
2023/04/15 12:13:53;;;;;;;;;2.00;2.00;;;;;12.31;71.05;100778.31;5054741;28;45521;-81
2023/04/15 12:16:19;;;;;;;;;1.50;1.00;;;;;12.36;70.27;100794.56;5053626;28;45710;-82
2023/04/15 12:18:46;;;;;;;;;1.50;1.00;;;;;12.39;70.51;100803.03;5053637;28;45744;-80
2023/04/15 12:21:12;;;;;;;;;1.00;1.00;;;;;12.40;70.05;100804.72;5035254;28;45630;-82
2023/04/15 12:23:50;;;;;;;;;3.00;3.00;;;;;12.41;70.32;100805.56;5053967;28;45543;-81
2023/04/15 12:26:27;;;;;;;;;1.00;1.00;;;;;12.39;70.01;100815.31;5053276;28;45680;-79
2023/04/15 12:29:00;;;;;;;;;2.00;2.00;;;;;12.36;69.85;100813.75;5032837;28;46485;-79
2023/04/15 12:31:25;;;;;;;;;3.00;2.00;;;;;12.38;70.21;100818.91;5072636;28;45491;-79
2023/04/15 12:33:53;;;;;;;;;1.00;1.00;;;;;12.41;70.28;100822.16;5073072;28;45923;-78
2023/04/15 12:36:19;;;;;;;;;1.50;0.50;;;;;12.41;70.08;100821.31;5073062;28;45780;-79
2023/04/15 12:38:44;;;;;;;;;2.25;2.00;;;;;12.48;70.21;100828.59;5071480;28;47217;-78
2023/04/15 12:41:10;;;;;;;;;2.00;2.00;;;;;12.54;69.72;100827.31;5072175;28;46014;-80
2023/04/15 12:43:35;;;;;;;;;2.00;2.00;;;;;12.53;69.29;100850.13;5075899;28;45680;-80
2023/04/15 12:46:01;;;;;;;;;2.00;2.00;;;;;12.54;69.04;100841.28;5075967;28;45664;-80
2023/04/15 12:48:26;;;;;;;;;2.00;1.25;;;;;12.50;68.78;100855.63;5076202;28;46093;-81
2023/04/15 12:50:52;;;;;;;;;3.00;3.00;;;;;12.50;69.57;100844.25;5073531;28;45809;-80
2023/04/15 12:53:17;;;;;;;;;3.00;1.75;;;;;12.54;69.38;100846.53;5076723;28;45512;-81
2023/04/15 12:55:43;;;;;;;;;2.00;2.00;;;;;12.58;68.89;100862.91;5076131;28;45565;-82
2023/04/15 13:01:30;;;;;;;;;2.25;2.25;;;;;12.61;68.87;100858.28;5076199;28;45685;-84
2023/04/15 13:03:55;;;;;;;;;2.00;1.25;;;;;12.65;68.98;100879.91;5076409;28;45636;-81
2023/04/15 13:06:21;;;;;;;;;2.00;2.00;;;;;12.67;68.59;100875.38;5076267;28;46604;-81
2023/04/15 13:08:47;;;;;;;;;2.75;1.75;;;;;12.74;68.35;100867.88;5075454;28;48126;-81
2023/04/15 13:11:12;;;;;;;;;1.00;1.00;;;;;12.78;67.88;100883.28;5075058;28;45964;-82